Bradford, New York
Current Conditions -  °F | °C
As of 8:53 AM on Saturday 22 Nov 2014 (Local Time) from KELM Reporting Station
Clear Clear  
Wind Chill: -5°   Ceiling: Unl
Heat Index: -5°   Visibility: 10mi
Dew Point: -9°   Wind: 3mph
Humidity: 74%   Direction: 200°SSW
Pressure: 30.3"   Gusts: NA
Location:  42.37°N, 77.11°W
Report Text: KELM 221353Z 20003KT 10SM CLR M05/M09 A3030 RMK AO2 SLP277 T10501089
Loading
Personal Weather Stations






























Interactive Weather Map New forecast layout! Learn more

10-Day Weather Forecast

Advertisements
Track Severe Weather on mobile